Time;durP1;ratioP1;P1;durP2;ratioP2;P2;SDS_P1;SDS_P2;PMS_P1;PMS_P2;Temp;Humidity;BMP_temperature;BMP_pressure;BME280_temperature;BME280_humidity;BME280_pressure;Samples;Min_cycle;Max_cycle;Signal;HPM_P1;HPM_P2
2022/01/03 00:00:24;;;;;;;14.13;4.03;;;9.80;99.90;;;;;;5055834;28;20504;-61
2022/01/03 00:02:52;;;;;;;11.50;4.30;;;9.80;99.90;;;;;;5055945;28;20906;-61
2022/01/03 00:05:21;;;;;;;7.57;4.80;;;9.80;99.90;;;;;;5055513;28;20523;-61
2022/01/03 00:07:48;;;;;;;12.73;5.20;;;9.80;99.90;;;;;;5053423;28;20469;-61
2022/01/03 00:10:17;;;;;;;6.10;3.30;;;9.80;99.90;;;;;;5056444;28;21029;-61
2022/01/03 00:12:46;;;;;;;10.90;3.93;;;9.80;99.90;;;;;;5056420;28;20508;-61
2022/01/03 00:15:15;;;;;;;15.33;4.90;;;9.80;99.90;;;;;;5055752;28;20508;-61
2022/01/03 00:17:43;;;;;;;9.33;3.97;;;9.80;99.90;;;;;;5055928;28;21058;-61
2022/01/03 00:20:13;;;;;;;13.20;4.50;;;9.80;99.90;;;;;;5055456;28;20521;-62
2022/01/03 00:22:44;;;;;;;13.07;4.00;;;9.70;99.90;;;;;;5056317;28;20494;-61
2022/01/03 00:25:16;;;;;;;8.40;3.40;;;9.70;99.90;;;;;;5052610;28;20469;-62
2022/01/03 00:27:51;;;;;;;14.23;3.37;;;9.70;99.90;;;;;;5056113;28;20957;-61
2022/01/03 00:30:23;;;;;;;7.93;3.17;;;9.70;99.90;;;;;;5055807;28;20457;-61
2022/01/03 00:32:52;;;;;;;9.57;3.27;;;9.70;99.90;;;;;;5054408;28;20762;-62
2022/01/03 00:35:21;;;;;;;11.27;4.07;;;9.70;99.90;;;;;;5055265;28;20469;-61
2022/01/03 00:37:49;;;;;;;10.10;3.90;;;9.70;99.90;;;;;;5054434;28;20927;-60
2022/01/03 00:40:18;;;;;;;10.60;4.03;;;9.70;99.90;;;;;;5055591;28;21036;-60
2022/01/03 00:42:46;;;;;;;13.50;4.50;;;9.60;99.90;;;;;;5054957;28;20523;-60
2022/01/03 00:45:14;;;;;;;17.07;4.53;;;9.60;99.90;;;;;;5056274;28;20494;-61
2022/01/03 00:47:44;;;;;;;10.30;3.30;;;9.60;99.90;;;;;;5055678;28;20470;-61
2022/01/03 00:50:15;;;;;;;13.20;4.80;;;9.50;99.90;;;;;;5055609;28;20755;-61
2022/01/03 00:52:42;;;;;;;10.30;3.60;;;9.50;99.90;;;;;;5055241;28;20934;-61
2022/01/03 00:55:10;;;;;;;13.77;3.63;;;9.50;99.90;;;;;;5054275;28;20818;-61
2022/01/03 00:57:52;;;;;;;11.03;3.50;;;9.50;99.90;;;;;;5054500;28;20489;-61
2022/01/03 01:00:19;;;;;;;16.53;4.07;;;9.50;99.90;;;;;;5052953;28;20533;-61
2022/01/03 01:02:51;;;;;;;12.03;4.00;;;9.50;99.90;;;;;;5054426;28;20458;-61
2022/01/03 01:05:21;;;;;;;11.40;3.80;;;9.60;99.90;;;;;;5054663;28;20545;-62
2022/01/03 01:07:49;;;;;;;17.10;3.87;;;9.60;99.90;;;;;;5055221;28;20483;-61
2022/01/03 01:10:17;;;;;;;15.70;4.17;;;9.60;99.90;;;;;;5054747;28;20564;-62
2022/01/03 01:12:46;;;;;;;15.50;4.40;;;9.50;99.90;;;;;;5054877;28;20454;-62
2022/01/03 01:15:16;;;;;;;14.80;4.90;;;9.60;99.90;;;;;;5052180;28;20769;-61
2022/01/03 01:17:45;;;;;;;11.67;3.53;;;9.60;99.90;;;;;;5055458;28;20462;-61
2022/01/03 01:20:15;;;;;;;9.93;3.97;;;9.60;99.90;;;;;;5056275;28;20959;-62
2022/01/03 01:22:42;;;;;;;13.20;4.87;;;9.60;99.90;;;;;;5056412;28;20465;-62
2022/01/03 01:27:45;;;;;;;12.90;3.60;;;9.50;99.90;;;;;;5056080;28;20498;-61
2022/01/03 01:28:12;;;;;;;13.10;4.00;;;9.60;99.90;;;;;;5055231;28;20458;-61
2022/01/03 01:30:44;;;;;;;11.43;4.03;;;9.60;99.90;;;;;;5056552;28;20480;-62
2022/01/03 01:33:14;;;;;;;13.23;3.93;;;9.50;99.90;;;;;;5056040;28;20466;-61
2022/01/03 01:35:46;;;;;;;12.80;4.30;;;9.50;99.90;;;;;;5056027;28;20806;-61
2022/01/03 01:38:15;;;;;;;14.73;4.20;;;9.50;99.90;;;;;;5059282;28;20561;-61
2022/01/03 01:40:47;;;;;;;14.00;3.90;;;9.50;99.90;;;;;;5059467;28;20533;-61
2022/01/03 01:43:18;;;;;;;13.50;4.70;;;9.50;99.90;;;;;;5059170;28;20462;-62
2022/01/03 01:45:49;;;;;;;15.53;6.20;;;9.40;99.90;;;;;;5059436;28;20497;-62
2022/01/03 01:48:17;;;;;;;12.80;4.03;;;9.50;99.90;;;;;;5060003;28;20497;-62
2022/01/03 01:50:52;;;;;;;15.40;4.73;;;9.50;99.90;;;;;;5058968;28;20497;-62
2022/01/03 01:53:24;;;;;;;21.17;4.60;;;9.50;99.90;;;;;;5059452;28;20508;-62
2022/01/03 01:55:53;;;;;;;15.23;4.20;;;9.50;99.90;;;;;;5059429;28;20494;-61
2022/01/03 01:58:35;;;;;;;17.43;4.70;;;9.50;99.90;;;;;;5059835;28;20910;-61
2022/01/03 02:01:07;;;;;;;12.50;3.90;;;9.50;99.90;;;;;;5059476;28;20482;-62
2022/01/03 02:03:53;;;;;;;13.07;4.20;;;9.50;99.90;;;;;;5059474;28;20488;-62
2022/01/03 02:06:28;;;;;;;14.00;4.17;;;9.50;99.90;;;;;;5042551;28;20544;-62
2022/01/03 02:09:05;;;;;;;14.00;5.13;;;9.50;99.90;;;;;;5059540;28;20450;-61
2022/01/03 02:11:48;;;;;;;13.43;4.53;;;9.50;99.90;;;;;;5059308;28;20485;-62
2022/01/03 02:14:17;;;;;;;14.77;5.10;;;9.50;99.90;;;;;;5058938;28;20515;-61
2022/01/03 02:16:46;;;;;;;18.50;5.27;;;9.50;99.90;;;;;;5059166;28;20875;-62
2022/01/03 02:19:14;;;;;;;15.63;5.00;;;9.50;99.90;;;;;;5060168;28;20528;-62
2022/01/03 02:21:42;;;;;;;23.93;4.90;;;9.50;99.90;;;;;;5059139;28;20883;-62
2022/01/03 02:24:10;;;;;;;14.73;4.97;;;9.50;99.90;;;;;;5059781;28;20495;-62
2022/01/03 02:26:37;;;;;;;17.17;4.33;;;9.50;99.90;;;;;;5059125;28;20824;-62
2022/01/03 02:29:04;;;;;;;17.07;4.73;;;9.50;99.90;;;;;;5058659;28;20501;-62
2022/01/03 02:31:38;;;;;;;10.87;4.43;;;9.50;99.90;;;;;;5058973;28;20513;-62
2022/01/03 02:34:08;;;;;;;21.63;5.03;;;9.50;99.90;;;;;;5059050;28;20469;-62
2022/01/03 02:36:36;;;;;;;14.90;5.00;;;9.50;99.90;;;;;;5058956;28;20466;-62
2022/01/03 02:39:05;;;;;;;12.50;4.63;;;9.50;99.90;;;;;;5059079;28;20645;-62
2022/01/03 02:41:32;;;;;;;9.50;4.10;;;9.50;99.90;;;;;;5058434;28;20505;-62
2022/01/03 02:43:59;;;;;;;13.70;4.60;;;9.50;99.90;;;;;;5058986;28;20502;-62
2022/01/03 02:46:26;;;;;;;15.60;4.37;;;9.40;99.90;;;;;;5058297;28;20467;-62
2022/01/03 02:48:55;;;;;;;15.33;4.70;;;9.40;99.90;;;;;;5057602;28;20520;-62
2022/01/03 02:51:25;;;;;;;14.10;4.10;;;9.30;99.90;;;;;;5058296;28;20454;-62
2022/01/03 02:53:52;;;;;;;11.50;4.60;;;9.30;99.90;;;;;;5058593;28;20466;-62
2022/01/03 02:56:21;;;;;;;16.73;3.90;;;9.30;99.90;;;;;;5058443;28;20505;-62
2022/01/03 02:58:48;;;;;;;13.30;4.07;;;9.30;99.90;;;;;;5058138;28;20502;-62
2022/01/03 03:01:15;;;;;;;17.43;3.20;;;9.30;99.90;;;;;;5058560;28;20469;-62
2022/01/03 03:03:42;;;;;;;22.47;4.30;;;9.20;99.90;;;;;;5058875;28;20493;-62
2022/01/03 03:06:09;;;;;;;17.00;4.57;;;9.20;99.90;;;;;;5057900;28;20457;-62
2022/01/03 03:08:39;;;;;;;14.73;5.00;;;9.20;99.90;;;;;;5057537;28;20519;-63
2022/01/03 03:11:06;;;;;;;12.70;4.40;;;9.20;99.90;;;;;;5057416;28;20502;-62
2022/01/03 03:13:35;;;;;;;19.67;4.83;;;9.20;99.90;;;;;;5058034;28;20509;-62
2022/01/03 03:16:02;;;;;;;13.57;3.80;;;9.20;99.90;;;;;;5058214;28;20466;-62
2022/01/03 03:18:29;;;;;;;14.80;3.80;;;9.30;99.90;;;;;;5058508;28;20524;-62
2022/01/03 03:20:57;;;;;;;17.03;4.57;;;9.30;99.90;;;;;;5057326;28;20529;-62
2022/01/03 03:23:24;;;;;;;13.30;3.67;;;9.30;99.90;;;;;;5058127;28;20461;-62
2022/01/03 03:25:52;;;;;;;15.57;4.03;;;9.30;99.90;;;;;;5057898;28;20880;-63
2022/01/03 03:28:25;;;;;;;13.70;4.00;;;9.30;99.90;;;;;;5058107;28;20509;-62
2022/01/03 03:30:59;;;;;;;13.60;3.60;;;9.30;99.90;;;;;;5057397;28;20516;-62
2022/01/03 03:33:29;;;;;;;14.10;4.43;;;9.30;99.90;;;;;;5057863;28;20466;-62
2022/01/03 03:35:56;;;;;;;21.67;7.13;;;9.30;99.90;;;;;;5057558;28;20462;-62
2022/01/03 03:38:25;;;;;;;13.53;3.77;;;9.20;99.90;;;;;;5057635;28;20520;-62
2022/01/03 03:40:52;;;;;;;18.33;5.70;;;9.20;99.90;;;;;;5057202;28;20501;-62
2022/01/03 03:43:20;;;;;;;15.30;4.03;;;9.30;99.90;;;;;;5057513;28;20458;-62
2022/01/03 03:45:48;;;;;;;13.90;3.83;;;9.30;99.90;;;;;;5057602;28;20462;-62
2022/01/03 03:48:16;;;;;;;13.83;4.03;;;9.30;99.90;;;;;;5057487;28;20476;-62
2022/01/03 03:50:44;;;;;;;13.40;4.80;;;9.30;99.90;;;;;;5057080;28;20742;-62
2022/01/03 03:53:12;;;;;;;15.73;3.93;;;9.30;99.90;;;;;;5057383;28;20557;-62
2022/01/03 03:55:39;;;;;;;15.37;4.00;;;9.30;99.90;;;;;;5057400;28;20469;-62
2022/01/03 03:58:06;;;;;;;19.10;4.40;;;9.30;99.90;;;;;;5057046;28;20486;-62
2022/01/03 04:00:35;;;;;;;12.70;4.47;;;9.30;99.90;;;;;;5056198;28;20490;-62
2022/01/03 04:03:02;;;;;;;11.57;4.90;;;9.30;99.90;;;;;;5056740;28;20498;-62
2022/01/03 04:05:32;;;;;;;12.23;4.80;;;9.30;99.90;;;;;;5056761;28;20462;-62
2022/01/03 04:07:59;;;;;;;10.73;4.47;;;9.20;99.90;;;;;;5057053;28;20472;-62
2022/01/03 04:10:26;;;;;;;9.57;4.83;;;9.20;99.90;;;;;;5056828;28;20863;-62
2022/01/03 04:12:53;;;;;;;14.50;4.17;;;9.20;99.90;;;;;;5055861;28;20466;-62
2022/01/03 04:15:20;;;;;;;11.67;3.53;;;9.20;99.90;;;;;;5056017;28;20516;-62
2022/01/03 04:17:47;;;;;;;15.63;3.90;;;9.20;99.90;;;;;;5056181;28;20490;-62
2022/01/03 04:20:15;;;;;;;18.57;4.33;;;9.20;99.90;;;;;;5056615;28;20529;-62
2022/01/03 04:22:44;;;;;;;11.33;4.10;;;9.20;99.90;;;;;;5056282;28;20462;-62
2022/01/03 04:25:12;;;;;;;12.87;4.50;;;9.20;99.90;;;;;;5055998;28;20490;-62
2022/01/03 04:27:39;;;;;;;8.40;3.80;;;9.20;99.90;;;;;;5055486;28;20560;-62
2022/01/03 04:30:07;;;;;;;9.17;3.30;;;9.20;99.90;;;;;;5056627;28;20494;-62
2022/01/03 04:32:34;;;;;;;16.63;6.10;;;9.20;99.90;;;;;;5055581;28;20490;-62
2022/01/03 04:35:01;;;;;;;10.47;4.40;;;9.10;99.90;;;;;;5055969;28;20516;-62
2022/01/03 04:37:28;;;;;;;13.03;4.70;;;9.20;99.90;;;;;;5055991;28;20956;-62
2022/01/03 04:39:58;;;;;;;14.33;4.43;;;9.10;99.90;;;;;;5056110;28;20556;-62
2022/01/03 04:42:25;;;;;;;14.57;5.30;;;9.20;99.90;;;;;;5056539;28;20490;-62
2022/01/03 04:44:52;;;;;;;17.23;4.30;;;9.10;99.90;;;;;;5056449;28;20552;-62
2022/01/03 04:47:20;;;;;;;12.00;4.10;;;9.10;99.90;;;;;;5055881;28;20527;-62
2022/01/03 04:49:46;;;;;;;13.87;4.00;;;9.10;99.90;;;;;;5056141;28;20485;-62
2022/01/03 04:52:13;;;;;;;13.00;3.80;;;9.10;99.90;;;;;;5056347;28;20544;-62
2022/01/03 04:54:40;;;;;;;11.37;3.70;;;9.10;99.90;;;;;;5056334;28;20516;-62
2022/01/03 04:57:09;;;;;;;13.43;4.53;;;9.10;99.90;;;;;;5055956;28;20497;-62
2022/01/03 04:59:36;;;;;;;19.57;5.43;;;9.10;99.90;;;;;;5056374;28;20466;-62
2022/01/03 05:02:04;;;;;;;16.13;4.67;;;9.10;99.90;;;;;;5056031;28;20911;-62
2022/01/03 05:04:31;;;;;;;13.23;4.07;;;9.10;99.90;;;;;;5056279;28;20803;-62
2022/01/03 05:06:58;;;;;;;10.43;5.10;;;9.10;99.90;;;;;;5056489;28;20472;-62
2022/01/03 05:09:25;;;;;;;11.40;3.60;;;9.10;99.90;;;;;;5056128;28;20516;-62
2022/01/03 05:11:52;;;;;;;11.30;3.13;;;9.10;99.90;;;;;;5056488;28;20510;-62
2022/01/03 05:14:24;;;;;;;15.00;3.63;;;9.10;99.90;;;;;;5060415;28;20934;-62
2022/01/03 05:16:52;;;;;;;15.80;4.43;;;9.20;99.90;;;;;;5059921;28;20834;-62
2022/01/03 05:19:19;;;;;;;11.63;3.73;;;9.10;99.90;;;;;;5060066;28;20474;-62
2022/01/03 05:21:49;;;;;;;13.50;3.60;;;9.20;99.90;;;;;;5060316;28;20526;-62
2022/01/03 05:24:16;;;;;;;9.50;3.70;;;9.20;99.90;;;;;;5059942;28;20879;-62
2022/01/03 05:26:45;;;;;;;13.30;5.40;;;9.20;99.90;;;;;;5059333;28;20883;-62
2022/01/03 05:29:12;;;;;;;11.87;3.87;;;9.20;99.90;;;;;;5059622;28;20462;-62
2022/01/03 05:31:40;;;;;;;12.53;4.03;;;9.10;99.90;;;;;;5060283;28;20496;-62
2022/01/03 05:34:07;;;;;;;13.97;4.30;;;9.10;99.90;;;;;;5059849;28;20829;-62
2022/01/03 05:36:34;;;;;;;13.80;4.70;;;9.10;99.90;;;;;;5060206;28;20470;-62
2022/01/03 05:39:01;;;;;;;7.97;4.07;;;9.10;99.90;;;;;;5059569;28;20504;-61
2022/01/03 05:41:29;;;;;;;12.57;3.77;;;9.20;99.90;;;;;;5059587;28;20529;-62
2022/01/03 05:43:56;;;;;;;11.13;3.60;;;9.20;99.90;;;;;;5059893;28;20520;-61
2022/01/03 05:46:23;;;;;;;11.70;3.33;;;9.20;99.90;;;;;;5059754;28;20473;-62
2022/01/03 05:48:52;;;;;;;10.50;3.63;;;9.20;1.00;;;;;;5058754;28;20536;-62
2022/01/03 05:51:19;;;;;;;18.03;4.50;;;9.10;1.00;;;;;;5059442;28;20500;-62
2022/01/03 05:53:46;;;;;;;13.70;4.03;;;9.20;1.00;;;;;;5059620;28;20489;-61
2022/01/03 05:56:13;;;;;;;10.80;4.30;;;9.20;1.00;;;;;;5059667;28;20466;-62
2022/01/03 05:58:40;;;;;;;11.23;3.63;;;9.20;1.00;;;;;;5059418;28;20462;-61
2022/01/03 06:01:07;;;;;;;12.53;4.10;;;9.20;1.00;;;;;;5059159;28;20858;-62
2022/01/03 06:03:37;;;;;;;20.97;5.70;;;9.20;99.90;;;;;;5058875;28;20469;-62
2022/01/03 06:06:19;;;;;;;10.67;4.77;;;9.20;99.90;;;;;;5059148;28;20470;-61
2022/01/03 06:08:46;;;;;;;13.47;4.10;;;9.20;99.90;;;;;;5058994;28;20773;-62
2022/01/03 06:11:13;;;;;;;13.97;4.30;;;9.20;99.90;;;;;;5058253;28;20529;-61
2022/01/03 06:13:40;;;;;;;11.50;5.00;;;9.20;99.90;;;;;;5059068;28;20493;-61
2022/01/03 06:16:08;;;;;;;10.07;4.80;;;9.20;99.90;;;;;;5058887;28;20497;-61
2022/01/03 06:18:35;;;;;;;10.83;4.10;;;9.20;1.00;;;;;;5059377;28;20934;-61
2022/01/03 06:21:02;;;;;;;17.13;6.17;;;9.20;1.00;;;;;;5058836;28;20493;-61
2022/01/03 06:23:31;;;;;;;12.80;4.97;;;9.20;99.90;;;;;;5057635;28;20551;-62
2022/01/03 06:25:58;;;;;;;18.50;5.10;;;9.20;99.90;;;;;;5058921;28;20868;-62
2022/01/03 06:28:25;;;;;;;15.60;5.10;;;9.20;99.90;;;;;;5056489;28;20515;-62
2022/01/03 06:30:52;;;;;;;12.93;3.90;;;9.20;99.90;;;;;;5058740;28;20470;-62
2022/01/03 06:33:19;;;;;;;15.60;4.47;;;9.20;99.90;;;;;;5057816;28;20467;-62
2022/01/03 06:35:46;;;;;;;15.10;4.57;;;9.20;99.90;;;;;;5058502;28;20466;-62
2022/01/03 06:38:16;;;;;;;14.60;4.93;;;9.20;99.90;;;;;;5058711;28;20824;-61
2022/01/03 06:40:44;;;;;;;15.93;3.87;;;9.20;99.90;;;;;;5058294;28;20579;-62
2022/01/03 06:43:11;;;;;;;13.00;4.30;;;9.30;99.90;;;;;;5055983;28;20466;-62
2022/01/03 06:45:38;;;;;;;13.73;4.20;;;9.30;99.90;;;;;;5058175;28;20900;-62
2022/01/03 06:48:06;;;;;;;20.40;4.40;;;9.20;99.90;;;;;;5058439;28;20914;-62
2022/01/03 06:50:34;;;;;;;17.20;5.33;;;9.30;99.90;;;;;;5057849;28;20463;-62
2022/01/03 06:53:01;;;;;;;12.27;4.83;;;9.30;99.90;;;;;;5058095;28;20462;-62
2022/01/03 06:55:31;;;;;;;13.00;5.17;;;9.20;99.90;;;;;;5058347;28;20466;-62
2022/01/03 06:57:59;;;;;;;19.80;5.47;;;9.20;1.00;;;;;;5062838;28;20488;-62
2022/01/03 07:00:26;;;;;;;7.07;4.00;;;9.20;99.90;;;;;;5057913;28;20493;-62
2022/01/03 07:02:53;;;;;;;18.77;4.40;;;9.20;1.00;;;;;;5057867;28;20490;-62
2022/01/03 07:05:20;;;;;;;18.53;4.57;;;9.30;1.00;;;;;;5057502;28;20462;-62
2022/01/03 07:07:47;;;;;;;15.00;5.57;;;9.30;1.00;;;;;;5058047;28;20480;-62
2022/01/03 07:10:17;;;;;;;13.23;4.50;;;9.30;1.00;;;;;;5057926;28;20469;-62
2022/01/03 07:12:49;;;;;;;14.23;4.73;;;9.30;1.00;;;;;;5056951;28;20552;-62
2022/01/03 07:20:43;;;;;;;19.60;4.80;;;9.20;1.00;;;;;;5013437;28;20532;-62
2022/01/03 07:23:10;;;;;;;25.03;5.00;;;9.20;1.00;;;;;;5057615;28;20818;-62
2022/01/03 07:25:37;;;;;;;16.80;4.67;;;9.30;1.00;;;;;;5057434;28;20473;-62
2022/01/03 07:28:07;;;;;;;13.90;4.30;;;9.30;1.00;;;;;;5057758;28;20493;-62
2022/01/03 07:30:36;;;;;;;15.77;5.27;;;9.30;1.00;;;;;;5057817;28;20906;-62
2022/01/03 07:33:03;;;;;;;14.00;4.37;;;9.30;1.00;;;;;;5057223;28;20501;-62
2022/01/03 07:35:29;;;;;;;14.80;5.33;;;9.30;1.00;;;;;;5056592;28;20907;-61
2022/01/03 07:37:58;;;;;;;17.20;4.77;;;9.30;1.00;;;;;;5057456;28;20516;-61
2022/01/03 07:40:25;;;;;;;18.50;3.90;;;9.30;99.90;;;;;;5057141;28;20466;-61
2022/01/03 07:42:55;;;;;;;18.00;4.87;;;9.30;99.90;;;;;;5057257;28;20899;-62
2022/01/03 07:45:22;;;;;;;12.87;3.90;;;9.30;1.00;;;;;;5056828;28;20502;-62
2022/01/03 07:47:50;;;;;;;11.80;4.90;;;9.30;99.90;;;;;;5056559;28;20486;-62
2022/01/03 07:50:17;;;;;;;12.97;4.17;;;9.30;99.90;;;;;;5056350;28;20501;-62
2022/01/03 07:52:44;;;;;;;14.83;4.40;;;9.30;99.90;;;;;;5056942;28;20876;-61
2022/01/03 07:55:13;;;;;;;13.77;4.90;;;9.30;99.90;;;;;;5057063;28;20497;-62
2022/01/03 07:57:41;;;;;;;14.67;4.03;;;9.30;99.90;;;;;;5057116;28;20870;-61
2022/01/03 08:00:17;;;;;;;13.40;4.47;;;9.30;99.90;;;;;;5056490;28;20892;-62
2022/01/03 08:02:44;;;;;;;9.13;4.00;;;9.30;99.90;;;;;;5054591;28;20493;-61
2022/01/03 08:05:15;;;;;;;13.67;3.90;;;9.40;99.90;;;;;;5055819;28;20462;-62
2022/01/03 08:07:43;;;;;;;17.43;4.27;;;9.40;99.90;;;;;;5056396;28;20467;-62
2022/01/03 08:10:12;;;;;;;13.70;4.47;;;9.30;99.90;;;;;;5056716;28;20462;-62
2022/01/03 08:12:39;;;;;;;10.57;3.60;;;9.40;99.90;;;;;;5056288;28;20514;-61
2022/01/03 08:15:07;;;;;;;9.83;3.50;;;9.40;99.90;;;;;;5056514;28;20546;-61
2022/01/03 08:17:35;;;;;;;14.23;4.63;;;9.40;99.90;;;;;;5056649;28;20823;-62
2022/01/03 08:20:04;;;;;;;9.40;3.60;;;9.40;99.90;;;;;;5056225;28;20455;-61
2022/01/03 08:22:32;;;;;;;15.17;3.70;;;9.40;99.90;;;;;;5056139;28;20859;-61
2022/01/03 08:24:59;;;;;;;12.77;4.43;;;9.40;99.90;;;;;;5056671;28;20565;-61
2022/01/03 08:27:26;;;;;;;13.87;4.70;;;9.40;99.90;;;;;;5056622;28;20469;-61
2022/01/03 08:29:53;;;;;;;11.70;4.30;;;9.40;99.90;;;;;;5056472;28;20465;-61
2022/01/03 08:32:22;;;;;;;14.73;5.10;;;9.50;99.90;;;;;;5056884;28;20454;-61
2022/01/03 08:34:52;;;;;;;9.60;3.73;;;9.50;99.90;;;;;;5053693;28;20493;-61
2022/01/03 08:37:19;;;;;;;11.33;4.37;;;9.50;99.90;;;;;;5055484;28;20837;-61
2022/01/03 08:39:47;;;;;;;18.60;4.07;;;9.50;99.90;;;;;;5055261;28;20511;-61
2022/01/03 08:42:14;;;;;;;16.23;4.77;;;9.60;99.90;;;;;;5055309;28;20496;-61
2022/01/03 08:44:41;;;;;;;8.07;4.10;;;9.60;99.90;;;;;;5055583;28;20463;-61
2022/01/03 08:47:08;;;;;;;9.17;4.63;;;9.60;99.90;;;;;;5054587;28;20868;-61
2022/01/03 08:49:35;;;;;;;11.90;4.30;;;9.60;99.90;;;;;;5055072;28;20458;-61
2022/01/03 08:52:05;;;;;;;10.43;4.10;;;9.60;99.90;;;;;;5054561;28;20501;-62
2022/01/03 08:54:34;;;;;;;12.93;4.33;;;9.60;99.90;;;;;;5055358;28;20462;-61
2022/01/03 08:57:02;;;;;;;15.33;4.70;;;9.50;99.90;;;;;;5054934;28;20563;-61
2022/01/03 08:59:29;;;;;;;12.93;4.53;;;9.60;99.90;;;;;;5055806;28;20871;-60
2022/01/03 09:02:05;;;;;;;11.10;3.90;;;9.50;1.00;;;;;;5054457;28;21016;-61
2022/01/03 09:04:33;;;;;;;10.40;4.43;;;9.40;99.90;;;;;;5054946;28;20464;-61
2022/01/03 09:07:00;;;;;;;20.97;5.13;;;9.40;1.00;;;;;;5055654;28;20556;-62
2022/01/03 09:09:29;;;;;;;10.20;4.90;;;9.30;1.00;;;;;;5055208;28;20458;-61
2022/01/03 09:11:56;;;;;;;18.03;5.37;;;9.30;1.00;;;;;;5055238;28;20497;-62
2022/01/03 09:14:24;;;;;;;13.70;4.37;;;9.30;99.90;;;;;;5056251;28;20493;-62
2022/01/03 09:16:54;;;;;;;13.47;4.83;;;9.30;99.90;;;;;;5055879;28;20461;-61
2022/01/03 09:19:21;;;;;;;19.43;6.03;;;9.30;99.90;;;;;;5055900;28;20517;-62
2022/01/03 09:21:48;;;;;;;13.77;5.77;;;9.30;99.90;;;;;;5056934;28;20552;-61
2022/01/03 09:24:26;;;;;;;16.17;5.97;;;9.40;99.90;;;;;;5055824;28;20462;-61
2022/01/03 09:29:39;;;;;;;14.50;5.90;;;9.40;1.00;;;;;;5056317;28;20449;-61
2022/01/03 09:32:07;;;;;;;17.87;5.73;;;9.40;1.00;;;;;;5057028;28;20919;-62
2022/01/03 09:34:34;;;;;;;16.17;5.20;;;9.40;1.00;;;;;;5056399;28;20480;-62
2022/01/03 09:37:02;;;;;;;16.20;4.90;;;9.40;99.90;;;;;;5056352;28;20488;-61
2022/01/03 09:39:32;;;;;;;17.07;4.80;;;9.40;99.90;;;;;;5057209;28;20462;-61
2022/01/03 09:42:04;;;;;;;18.73;5.50;;;9.50;99.90;;;;;;5057147;28;20493;-61
2022/01/03 09:44:33;;;;;;;20.50;5.60;;;9.50;1.00;;;;;;5057269;28;20871;-61
2022/01/03 09:47:05;;;;;;;13.03;4.47;;;9.50;1.00;;;;;;5056807;28;20462;-61
2022/01/03 09:49:35;;;;;;;17.60;5.77;;;9.50;1.00;;;;;;5056470;28;20465;-61
2022/01/03 09:52:04;;;;;;;11.13;5.50;;;9.50;1.00;;;;;;5055981;28;20429;-61
2022/01/03 09:54:32;;;;;;;14.10;4.57;;;9.50;1.00;;;;;;5056022;28;20453;-61
2022/01/03 09:57:04;;;;;;;14.47;4.57;;;9.50;1.00;;;;;;5055337;28;20494;-61
2022/01/03 09:59:32;;;;;;;11.50;4.50;;;9.50;1.00;;;;;;5057560;28;20493;-61
2022/01/03 10:02:00;;;;;;;13.43;5.10;;;9.60;1.00;;;;;;5053889;28;20543;-61
2022/01/03 10:04:28;;;;;;;17.50;5.10;;;9.70;1.00;;;;;;5058841;28;20519;-61
2022/01/03 10:06:56;;;;;;;15.37;6.10;;;9.60;99.90;;;;;;5058514;28;20516;-61
2022/01/03 10:09:25;;;;;;;9.80;4.47;;;9.70;99.90;;;;;;5058964;28;20458;-62
2022/01/03 10:11:52;;;;;;;12.60;3.90;;;9.80;99.90;;;;;;5055565;28;20478;-62
2022/01/03 10:14:19;;;;;;;9.63;4.60;;;9.80;99.90;;;;;;5058880;28;20458;-62
2022/01/03 10:16:50;;;;;;;14.57;4.37;;;9.80;99.90;;;;;;5057975;28;20815;-62
2022/01/03 10:19:17;;;;;;;11.57;5.00;;;9.80;99.90;;;;;;5054177;28;20454;-61
2022/01/03 10:21:48;;;;;;;8.23;4.20;;;9.80;99.90;;;;;;5058022;28;20521;-62
2022/01/03 10:24:18;;;;;;;15.13;4.73;;;9.80;99.90;;;;;;5057421;28;20470;-62
2022/01/03 10:26:52;;;;;;;12.37;4.40;;;9.90;99.90;;;;;;5057641;28;20974;-62
2022/01/03 10:29:30;;;;;;;12.90;4.63;;;9.90;99.90;;;;;;5056134;28;20515;-62
2022/01/03 10:32:00;;;;;;;13.40;4.57;;;9.80;99.90;;;;;;5058062;28;20458;-62
2022/01/03 10:34:33;;;;;;;12.57;4.17;;;9.90;99.90;;;;;;5057884;28;20450;-62
2022/01/03 10:37:11;;;;;;;22.37;5.60;;;9.90;99.90;;;;;;5057905;28;20466;-62
2022/01/03 10:39:38;;;;;;;14.90;4.50;;;10.00;99.10;;;;;;5055449;28;20462;-61
2022/01/03 10:42:23;;;;;;;15.80;4.70;;;10.00;97.30;;;;;;5057667;28;20552;-62
2022/01/03 10:44:50;;;;;;;9.87;4.07;;;10.00;56.20;;;;;;5057137;28;20490;-62
2022/01/03 10:47:30;;;;;;;8.70;4.00;;;10.00;60.20;;;;;;5055816;28;20524;-61
2022/01/03 10:49:58;;;;;;;13.83;3.97;;;10.00;46.80;;;;;;5051918;28;20494;-61
2022/01/03 10:52:27;;;;;;;8.90;4.23;;;10.00;55.40;;;;;;5055301;28;20521;-61
2022/01/03 10:55:11;;;;;;;17.80;4.73;;;10.00;51.50;;;;;;5053817;28;20463;-61
2022/01/03 10:57:53;;;;;;;15.13;4.70;;;10.00;48.90;;;;;;5053336;28;20473;-61
2022/01/03 11:00:24;;;;;;;14.97;4.10;;;10.00;57.60;;;;;;5053804;28;20560;-61
2022/01/03 11:03:30;;;;;;;15.57;5.07;;;10.10;39.90;;;;;;5055348;28;20966;-61
2022/01/03 11:06:02;;;;;;;12.60;4.10;;;10.30;14.50;;;;;;5055574;28;20462;-62
2022/01/03 11:11:32;;;;;;;15.83;5.00;;;10.50;1.00;;;;;;5055269;28;20913;-61
2022/01/03 11:13:59;;;;;;;12.23;5.13;;;10.40;1.00;;;;;;5035628;28;20462;-61
2022/01/03 11:16:32;;;;;;;13.57;4.43;;;10.60;1.00;;;;;;5054332;28;20462;-61
2022/01/03 11:18:59;;;;;;;12.67;4.57;;;10.70;1.00;;;;;;5053647;28;20494;-61
2022/01/03 11:21:30;;;;;;;15.90;4.73;;;10.60;1.00;;;;;;5053231;28;20508;-61
2022/01/03 11:24:10;;;;;;;11.87;4.17;;;10.60;1.00;;;;;;5052952;28;20472;-61
2022/01/03 11:26:40;;;;;;;14.27;5.27;;;10.60;1.00;;;;;;5054643;28;20548;-61
2022/01/03 11:29:08;;;;;;;16.20;4.90;;;10.50;1.00;;;;;;5053859;28;20470;-61
2022/01/03 11:31:39;;;;;;;19.27;4.47;;;10.50;1.00;;;;;;5054052;28;20558;-61
2022/01/03 11:34:07;;;;;;;21.47;4.90;;;10.60;1.00;;;;;;5054393;28;20462;-61
2022/01/03 11:36:35;;;;;;;10.80;3.63;;;10.70;1.00;;;;;;5053829;28;21068;-61
2022/01/03 11:39:08;;;;;;;15.77;4.87;;;10.70;1.00;;;;;;5054986;28;20533;-61
2022/01/03 11:41:37;;;;;;;12.10;4.53;;;10.60;1.00;;;;;;5053626;28;20466;-61
2022/01/03 11:44:04;;;;;;;13.80;4.47;;;10.80;1.00;;;;;;5055441;28;20467;-59
2022/01/03 11:46:32;;;;;;;8.53;4.17;;;10.90;1.00;;;;;;5056965;28;20465;-59
2022/01/03 11:48:59;;;;;;;14.10;4.33;;;11.10;1.00;;;;;;5055499;28;20466;-59
2022/01/03 11:51:30;;;;;;;14.13;4.30;;;11.20;1.00;;;;;;5055415;28;20466;-59
2022/01/03 11:54:02;;;;;;;10.43;4.03;;;11.30;1.00;;;;;;5055322;28;20467;-56
2022/01/03 11:56:34;;;;;;;10.47;4.13;;;11.30;1.00;;;;;;5053759;28;20523;-59
2022/01/03 11:59:20;;;;;;;13.50;3.93;;;11.00;1.00;;;;;;5055814;28;20458;-59
2022/01/03 12:04:35;;;;;;;9.13;4.30;;;10.90;1.00;;;;;;5053941;28;20528;-59
2022/01/03 12:07:05;;;;;;;11.10;4.10;;;11.00;1.00;;;;;;5053459;28;20462;-58
2022/01/03 12:09:37;;;;;;;10.47;4.73;;;10.90;1.00;;;;;;5053458;28;20465;-59
2022/01/03 12:12:07;;;;;;;15.47;6.17;;;11.00;1.00;;;;;;5053334;28;20799;-58
2022/01/03 12:14:42;;;;;;;11.20;4.33;;;11.00;1.00;;;;;;5055247;28;20941;-57
2022/01/03 12:17:13;;;;;;;9.33;3.40;;;11.10;1.00;;;;;;5048969;28;20457;-58
2022/01/03 12:19:42;;;;;;;11.07;4.57;;;11.00;1.00;;;;;;5056338;28;20465;-58
2022/01/03 12:22:14;;;;;;;8.33;4.13;;;11.00;1.00;;;;;;5056048;28;20486;-57
2022/01/03 12:25:02;;;;;;;12.63;4.20;;;10.90;1.00;;;;;;5057137;28;20467;-57
2022/01/03 12:27:39;;;;;;;12.47;4.60;;;10.90;1.00;;;;;;5056709;28;20462;-56
2022/01/03 12:30:25;;;;;;;9.70;4.13;;;10.70;1.00;;;;;;5056730;28;20469;-60
2022/01/03 12:33:25;;;;;;;10.60;4.03;;;10.60;1.00;;;;;;5056614;28;20516;-60
2022/01/03 12:36:18;;;;;;;10.70;4.03;;;10.50;1.00;;;;;;5056924;28;20511;-60
2022/01/03 12:39:07;;;;;;;9.40;4.17;;;10.40;1.00;;;;;;5056061;28;20458;-60
2022/01/03 12:41:47;;;;;;;12.83;4.73;;;10.40;1.00;;;;;;5056829;28;20516;-60
2022/01/03 12:44:50;;;;;;;13.37;4.30;;;10.20;1.00;;;;;;5045183;28;20508;-59
2022/01/03 12:47:18;;;;;;;23.03;5.07;;;10.10;99.90;;;;;;5055695;28;20489;-60
2022/01/03 12:49:45;;;;;;;9.30;4.33;;;10.00;99.90;;;;;;5056909;28;20859;-61
2022/01/03 12:52:18;;;;;;;19.20;5.10;;;9.90;1.00;;;;;;5057660;28;20454;-61
2022/01/03 12:54:45;;;;;;;8.67;4.00;;;9.80;1.00;;;;;;5057655;28;20515;-61
2022/01/03 12:57:17;;;;;;;14.67;4.70;;;9.70;15.10;;;;;;5055104;28;20462;-62
2022/01/03 12:59:46;;;;;;;15.17;4.20;;;9.60;99.90;;;;;;5056167;28;20528;-62
2022/01/03 13:02:30;;;;;;;16.10;4.80;;;9.50;1.00;;;;;;5056583;28;20527;-62
2022/01/03 13:04:59;;;;;;;21.17;5.23;;;9.50;99.90;;;;;;5056253;28;20489;-63
2022/01/03 13:07:26;;;;;;;14.03;5.17;;;9.50;99.90;;;;;;5056251;28;20462;-62
2022/01/03 13:09:53;;;;;;;19.20;5.23;;;9.50;1.00;;;;;;5056023;28;20954;-62
2022/01/03 13:12:19;;;;;;;14.90;5.17;;;9.50;1.00;;;;;;5055919;28;20486;-61
2022/01/03 13:14:48;;;;;;;17.37;6.80;;;9.40;22.30;;;;;;5054056;28;20540;-61